Time;durP1;ratioP1;P1;durP2;ratioP2;P2;SDS_P1;SDS_P2;PMS_P1;PMS_P2;Temp;Humidity;BMP_temperature;BMP_pressure;BME280_temperature;BME280_humidity;BME280_pressure;Samples;Min_cycle;Max_cycle;Signal;HPM_P1;HPM_P2
2023/07/07 00:00:36;;;;;;;7.70;5.80;;;14.60;99.90;;;;;;5065073;28;20067;-62
2023/07/07 00:03:01;;;;;;;9.07;5.50;;;14.60;99.90;;;;;;5046924;28;20037;-62
2023/07/07 00:05:27;;;;;;;8.05;5.45;;;14.60;99.90;;;;;;5047499;28;20040;-62
2023/07/07 00:07:53;;;;;;;7.50;6.13;;;14.50;99.90;;;;;;5051388;28;20508;-62
2023/07/07 00:10:19;;;;;;;7.10;5.47;;;14.50;99.90;;;;;;5067260;28;20067;-62
2023/07/07 00:12:45;;;;;;;7.60;5.10;;;14.50;99.90;;;;;;5052691;28;20033;-62
2023/07/07 00:15:11;;;;;;;5.93;4.90;;;14.40;99.90;;;;;;5056190;28;20060;-62
2023/07/07 00:17:40;;;;;;;8.40;5.47;;;14.40;99.90;;;;;;5066728;28;20039;-62
2023/07/07 00:20:07;;;;;;;7.15;5.55;;;14.40;99.90;;;;;;5068637;28;20644;-62
2023/07/07 00:22:34;;;;;;;7.75;5.43;;;14.30;99.90;;;;;;5049697;28;20037;-62
2023/07/07 00:25:01;;;;;;;5.93;5.03;;;14.30;99.90;;;;;;5053629;28;20098;-62
2023/07/07 00:27:26;;;;;;;6.07;4.88;;;14.30;99.90;;;;;;5066143;28;20068;-62
2023/07/07 00:29:52;;;;;;;6.15;4.78;;;14.30;99.90;;;;;;5057599;28;20131;-62
2023/07/07 00:32:18;;;;;;;6.13;4.63;;;14.30;99.90;;;;;;5049747;28;20568;-62
2023/07/07 00:34:43;;;;;;;7.97;5.57;;;14.20;99.90;;;;;;5052328;28;20502;-62
2023/07/07 00:37:09;;;;;;;5.22;4.72;;;14.20;99.90;;;;;;5054806;28;20095;-62
2023/07/07 00:39:34;;;;;;;6.10;5.50;;;14.20;99.90;;;;;;5055123;28;20487;-62
2023/07/07 00:42:00;;;;;;;7.95;5.78;;;14.20;99.90;;;;;;5051395;28;20441;-62
2023/07/07 00:44:50;;;;;;;8.40;5.38;;;14.20;99.90;;;;;;5053839;28;20037;-62
2023/07/07 00:47:17;;;;;;;7.07;4.95;;;14.20;99.90;;;;;;5062034;28;20033;-62
2023/07/07 00:49:43;;;;;;;6.35;5.22;;;14.10;99.90;;;;;;5069893;28;20595;-62
2023/07/07 00:52:08;;;;;;;6.50;5.15;;;14.10;99.90;;;;;;5056056;28;20045;-62
2023/07/07 00:54:35;;;;;;;5.35;4.43;;;14.10;99.90;;;;;;5043088;28;20034;-61
2023/07/07 00:57:03;;;;;;;5.28;4.13;;;14.10;99.90;;;;;;5052458;28;20610;-62
2023/07/07 00:59:41;;;;;;;4.80;4.20;;;14.10;99.90;;;;;;5055905;28;20044;-62
2023/07/07 01:02:13;;;;;;;4.07;3.67;;;14.10;99.90;;;;;;5059320;28;20055;-62
2023/07/07 01:04:42;;;;;;;5.45;3.97;;;14.00;99.90;;;;;;5053868;28;20045;-62
2023/07/07 01:07:23;;;;;;;4.40;4.00;;;14.10;99.90;;;;;;5053154;28;20075;-62
2023/07/07 01:09:49;;;;;;;8.52;5.80;;;14.10;99.90;;;;;;5061830;28;20078;-61
2023/07/07 01:12:15;;;;;;;7.15;5.90;;;14.10;99.90;;;;;;5051004;28;20034;-62
2023/07/07 01:14:45;;;;;;;9.95;6.60;;;14.10;99.90;;;;;;5048140;28;20044;-62
2023/07/07 01:17:32;;;;;;;7.72;6.40;;;14.20;99.90;;;;;;5057402;28;20032;-62
2023/07/07 01:20:21;;;;;;;7.75;6.28;;;14.20;99.90;;;;;;5052583;28;20068;-62
2023/07/07 01:23:21;;;;;;;9.77;6.22;;;14.20;99.90;;;;;;5051441;28;20045;-62
2023/07/07 01:26:22;;;;;;;13.55;9.38;;;14.20;99.90;;;;;;5052675;28;20037;-62
2023/07/07 01:29:14;;;;;;;12.35;9.05;;;14.20;99.90;;;;;;5057834;28;20483;-62
2023/07/07 01:31:50;;;;;;;15.73;10.85;;;14.20;99.90;;;;;;5053185;28;20041;-61
2023/07/07 01:34:16;;;;;;;18.95;11.70;;;14.20;99.90;;;;;;5043435;28;20522;-62
2023/07/07 01:36:42;;;;;;;12.48;9.30;;;14.20;99.90;;;;;;5056902;28;20040;-62
2023/07/07 01:39:13;;;;;;;11.52;8.85;;;14.20;99.90;;;;;;5054740;28;20043;-62
2023/07/07 01:41:56;;;;;;;12.70;9.75;;;14.20;99.90;;;;;;5049027;28;20038;-62
2023/07/07 01:44:58;;;;;;;15.38;10.95;;;14.20;99.90;;;;;;5051642;28;20036;-62
2023/07/07 01:47:31;;;;;;;14.02;9.65;;;14.20;99.90;;;;;;5066447;28;20075;-62
2023/07/07 01:50:03;;;;;;;15.38;11.88;;;14.20;99.90;;;;;;5062698;28;20033;-62
2023/07/07 01:52:47;;;;;;;16.58;10.85;;;14.20;99.90;;;;;;5050934;28;20092;-62
2023/07/07 01:55:18;;;;;;;15.75;10.45;;;14.20;99.90;;;;;;5052451;28;20453;-62
2023/07/07 01:57:47;;;;;;;14.35;10.63;;;14.10;99.90;;;;;;5069610;28;20036;-62
2023/07/07 02:00:15;;;;;;;16.02;11.68;;;14.20;99.90;;;;;;5056766;28;20132;-62
2023/07/07 02:02:40;;;;;;;14.35;11.13;;;14.10;99.90;;;;;;5049276;28;20049;-62
2023/07/07 02:05:07;;;;;;;16.05;11.68;;;14.10;99.90;;;;;;5049669;28;20448;-62
2023/07/07 02:07:33;;;;;;;13.73;11.50;;;14.10;99.90;;;;;;5053333;28;20033;-62
2023/07/07 02:09:59;;;;;;;17.50;11.52;;;14.10;99.90;;;;;;5053711;28;20033;-62
2023/07/07 02:12:24;;;;;;;17.83;12.88;;;14.10;99.90;;;;;;5050560;28;20035;-62
2023/07/07 02:14:50;;;;;;;18.88;12.98;;;14.00;99.90;;;;;;5055154;28;20056;-61
2023/07/07 02:17:16;;;;;;;16.50;12.07;;;14.00;99.90;;;;;;5052801;28;20112;-62
2023/07/07 02:19:42;;;;;;;19.70;13.82;;;14.00;99.90;;;;;;5053135;28;20068;-62
2023/07/07 02:22:08;;;;;;;21.50;13.10;;;14.00;99.90;;;;;;5050060;28;20045;-62
2023/07/07 02:24:34;;;;;;;19.52;13.82;;;14.00;99.90;;;;;;5057204;28;20609;-62
2023/07/07 02:26:59;;;;;;;20.48;14.15;;;13.90;99.90;;;;;;5050368;28;20040;-62
2023/07/07 02:29:25;;;;;;;21.05;13.55;;;14.00;99.90;;;;;;5057810;28;20047;-62
2023/07/07 02:31:50;;;;;;;20.75;14.38;;;14.00;99.90;;;;;;5052810;28;20057;-62
2023/07/07 02:34:16;;;;;;;20.42;13.63;;;14.00;99.90;;;;;;5055303;28;20032;-62
2023/07/07 02:36:42;;;;;;;20.45;15.57;;;14.00;99.90;;;;;;5053611;28;20115;-62
2023/07/07 02:39:07;;;;;;;18.83;14.18;;;13.90;99.90;;;;;;5053533;28;20407;-61
2023/07/07 02:41:33;;;;;;;20.48;15.52;;;13.90;99.90;;;;;;5043908;28;20406;-62
2023/07/07 02:43:59;;;;;;;20.58;14.40;;;13.90;99.90;;;;;;5049920;28;20035;-62
2023/07/07 02:46:25;;;;;;;19.58;14.10;;;13.90;99.90;;;;;;5059698;28;20048;-62
2023/07/07 02:48:50;;;;;;;18.40;14.25;;;13.90;99.90;;;;;;5066521;28;20036;-62
2023/07/07 02:51:16;;;;;;;20.23;15.18;;;13.80;99.90;;;;;;5057564;28;20029;-62
2023/07/07 02:53:41;;;;;;;25.73;17.45;;;13.80;99.90;;;;;;5050939;28;20037;-62
2023/07/07 02:56:07;;;;;;;20.88;14.45;;;13.80;99.90;;;;;;5058137;28;20040;-62
2023/07/07 02:58:33;;;;;;;22.33;14.85;;;13.80;99.90;;;;;;5049890;28;20033;-62
2023/07/07 03:01:10;;;;;;;21.90;15.75;;;13.70;99.90;;;;;;5057829;28;20126;-62
2023/07/07 03:03:41;;;;;;;22.60;16.45;;;13.70;99.90;;;;;;5052035;28;20099;-62
2023/07/07 03:06:08;;;;;;;;;;;13.70;99.90;;;;;;5050408;28;20047;-62
2023/07/07 03:08:34;;;;;;;20.88;14.95;;;13.60;99.90;;;;;;5050089;28;20404;-62
2023/07/07 03:11:05;;;;;;;25.42;15.80;;;13.60;99.90;;;;;;5050708;28;20140;-62
2023/07/07 03:13:30;;;;;;;22.52;15.98;;;13.60;99.90;;;;;;5050313;28;20136;-62
2023/07/07 03:15:59;;;;;;;21.33;16.20;;;13.60;99.90;;;;;;5058374;28;20112;-62
2023/07/07 03:18:25;;;;;;;24.15;16.23;;;13.60;99.90;;;;;;5049885;28;20033;-62
2023/07/07 03:20:50;;;;;;;21.98;15.85;;;13.60;99.90;;;;;;5049440;28;20059;-61
2023/07/07 03:23:17;;;;;;;20.08;15.63;;;13.50;99.90;;;;;;5047785;28;20032;-62
2023/07/07 03:25:42;;;;;;;21.65;15.80;;;13.50;99.90;;;;;;5057805;28;20372;-62
2023/07/07 03:28:08;;;;;;;20.60;15.57;;;13.50;99.90;;;;;;5055893;28;20053;-62
2023/07/07 03:30:36;;;;;;;22.35;16.23;;;13.40;99.90;;;;;;5046493;28;20060;-61
2023/07/07 03:33:02;;;;;;;23.13;16.10;;;13.40;99.90;;;;;;5037304;28;20124;-61
2023/07/07 03:35:28;;;;;;;25.83;15.73;;;13.40;99.90;;;;;;5053753;28;20120;-62
2023/07/07 03:37:53;;;;;;;22.60;16.67;;;13.50;99.90;;;;;;5060738;28;20398;-61
2023/07/07 03:40:19;;;;;;;23.52;16.35;;;13.40;99.90;;;;;;5059430;28;20037;-62
2023/07/07 03:42:44;;;;;;;20.77;15.55;;;13.50;99.90;;;;;;5047664;28;20459;-62
2023/07/07 03:45:10;;;;;;;20.35;15.65;;;13.50;99.90;;;;;;5048143;28;20037;-62
2023/07/07 03:47:36;;;;;;;22.95;16.33;;;13.50;99.90;;;;;;5049602;28;20055;-61
2023/07/07 03:50:02;;;;;;;22.88;16.25;;;13.50;99.90;;;;;;5047074;28;20033;-62
2023/07/07 03:52:28;;;;;;;25.45;15.98;;;13.50;99.90;;;;;;5040020;28;20037;-61
2023/07/07 03:54:54;;;;;;;23.02;16.25;;;13.50;99.90;;;;;;5046945;28;20041;-62
2023/07/07 03:57:19;;;;;;;22.88;16.85;;;13.60;99.90;;;;;;5048833;28;20498;-62
2023/07/07 03:59:45;;;;;;;19.80;15.70;;;13.50;99.90;;;;;;5050827;28;20033;-62
2023/07/07 04:02:12;;;;;;;24.10;16.77;;;13.50;99.90;;;;;;5044998;28;20033;-62
2023/07/07 04:04:38;;;;;;;17.73;12.35;;;13.60;99.90;;;;;;5047106;28;20053;-62
2023/07/07 04:07:04;;;;;;;22.23;15.73;;;13.60;99.90;;;;;;5048271;28;20399;-62
2023/07/07 04:09:29;;;;;;;20.25;15.30;;;13.60;99.90;;;;;;5048735;28;20037;-62
2023/07/07 04:11:55;;;;;;;24.02;17.08;;;13.50;99.90;;;;;;5049248;28;20112;-62
2023/07/07 04:14:27;;;;;;;22.75;16.58;;;13.60;99.90;;;;;;5051163;28;20532;-62
2023/07/07 04:16:52;;;;;;;21.40;16.60;;;13.60;99.90;;;;;;5046883;28;20406;-62
2023/07/07 04:19:18;;;;;;;22.15;16.85;;;13.70;99.90;;;;;;5060485;28;20040;-62
2023/07/07 04:21:43;;;;;;;25.42;17.58;;;13.70;99.90;;;;;;5042971;28;20036;-61
2023/07/07 04:24:09;;;;;;;23.13;16.55;;;13.70;99.90;;;;;;5045463;28;20041;-62
2023/07/07 04:26:38;;;;;;;24.90;16.42;;;13.70;99.90;;;;;;5044704;28;20040;-62
2023/07/07 04:29:03;;;;;;;26.58;18.73;;;13.80;99.90;;;;;;5046555;28;20041;-62
2023/07/07 04:31:30;;;;;;;25.70;17.95;;;13.80;99.90;;;;;;5043435;28;20043;-62
2023/07/07 04:33:56;;;;;;;24.80;17.58;;;13.80;99.90;;;;;;5046966;28;20075;-62
2023/07/07 04:36:22;;;;;;;27.08;19.08;;;13.90;99.90;;;;;;5048219;28;20048;-62
2023/07/07 04:38:49;;;;;;;24.92;18.02;;;13.90;99.90;;;;;;5049951;28;20032;-62
2023/07/07 04:41:20;;;;;;;27.98;18.77;;;13.90;99.90;;;;;;5048213;28;20040;-62
2023/07/07 04:43:49;;;;;;;25.15;18.08;;;14.00;99.90;;;;;;5049603;28;20037;-62
2023/07/07 04:46:18;;;;;;;25.73;18.88;;;14.00;99.90;;;;;;5046888;28;20053;-62
2023/07/07 04:48:43;;;;;;;26.83;18.73;;;14.10;99.90;;;;;;5050354;28;20055;-62
2023/07/07 04:51:11;;;;;;;27.50;18.50;;;14.10;99.90;;;;;;5026004;22;20041;-65
2023/07/07 04:53:39;;;;;;;24.77;18.27;;;14.20;99.90;;;;;;5031833;28;20033;-65
2023/07/07 04:56:13;;;;;;;25.30;18.05;;;14.20;99.90;;;;;;5034479;28;20121;-65
2023/07/07 04:58:39;;;;;;;26.88;18.98;;;14.30;99.90;;;;;;5034208;28;20044;-65
2023/07/07 05:01:09;;;;;;;30.48;19.05;;;14.30;99.90;;;;;;5031667;28;20133;-65
2023/07/07 05:03:35;;;;;;;26.88;18.45;;;14.40;99.90;;;;;;5032577;28;20128;-65
2023/07/07 05:06:03;;;;;;;25.63;18.23;;;14.50;99.90;;;;;;5032428;28;20033;-66
2023/07/07 05:08:35;;;;;;;28.83;18.02;;;14.60;99.90;;;;;;5029527;28;20037;-65
2023/07/07 05:11:01;;;;;;;28.77;19.00;;;14.80;99.90;;;;;;5032898;28;20042;-65
2023/07/07 05:13:27;;;;;;;26.33;18.92;;;14.90;99.90;;;;;;5033656;28;20037;-65
2023/07/07 05:16:22;;;;;;;26.75;18.52;;;15.00;99.90;;;;;;5032628;28;20072;-65
2023/07/07 05:18:49;;;;;;;27.88;17.70;;;15.20;99.90;;;;;;5032115;28;20049;-65
2023/07/07 05:21:17;;;;;;;25.70;18.25;;;15.30;99.90;;;;;;5031500;28;20479;-65
2023/07/07 05:23:43;;;;;;;28.67;18.42;;;15.40;99.90;;;;;;5033411;28;20063;-65
2023/07/07 05:26:09;;;;;;;30.67;18.70;;;15.50;99.90;;;;;;5032905;28;20123;-65
2023/07/07 05:28:35;;;;;;;26.77;17.83;;;15.60;99.90;;;;;;5033321;28;20495;-65
2023/07/07 05:31:01;;;;;;;24.73;17.88;;;15.70;99.90;;;;;;5032284;28;20475;-65
2023/07/07 05:33:28;;;;;;;28.80;17.92;;;15.80;99.90;;;;;;5031983;28;20072;-65
2023/07/07 05:35:56;;;;;;;24.80;18.25;;;15.90;99.90;;;;;;5032899;28;20394;-65
2023/07/07 05:38:26;;;;;;;26.42;17.17;;;16.10;99.90;;;;;;5031076;28;20044;-65
2023/07/07 05:40:52;;;;;;;22.65;16.38;;;16.30;99.90;;;;;;5029889;28;20037;-65
2023/07/07 05:43:20;;;;;;;21.92;16.77;;;16.50;99.90;;;;;;5027984;28;20064;-65
2023/07/07 05:45:46;;;;;;;23.30;16.83;;;16.80;99.90;;;;;;5026760;28;20107;-65
2023/07/07 05:48:14;;;;;;;22.50;16.65;;;16.90;99.90;;;;;;5032259;28;20495;-65
2023/07/07 05:50:43;;;;;;;23.55;16.83;;;17.00;99.90;;;;;;5033991;28;20042;-65
2023/07/07 05:53:12;;;;;;;24.20;17.20;;;17.00;99.90;;;;;;5033712;28;20389;-65
2023/07/07 05:55:38;;;;;;;25.27;16.15;;;17.10;99.90;;;;;;5028991;28;20403;-65
2023/07/07 05:58:05;;;;;;;22.02;15.30;;;17.20;99.90;;;;;;5033520;28;20045;-68
2023/07/07 06:00:33;;;;;;;24.38;15.68;;;17.20;99.90;;;;;;5031681;28;20052;-67
2023/07/07 06:02:59;;;;;;;23.73;16.50;;;17.10;99.90;;;;;;5029482;28;20042;-66
2023/07/07 06:05:26;;;;;;;23.63;15.57;;;17.20;99.90;;;;;;5024511;28;20144;-67
2023/07/07 06:07:53;;;;;;;24.42;15.98;;;17.30;99.90;;;;;;5031020;28;20060;-66
2023/07/07 06:10:19;;;;;;;21.73;15.10;;;17.30;99.90;;;;;;5030940;28;20026;-66
2023/07/07 06:12:45;;;;;;;20.10;15.40;;;17.40;99.90;;;;;;5027974;28;20091;-66
2023/07/07 06:15:11;;;;;;;24.80;15.05;;;17.50;99.90;;;;;;5028780;28;20535;-66
2023/07/07 06:17:36;;;;;;;19.90;13.43;;;17.60;99.90;;;;;;5028321;28;20108;-67
2023/07/07 06:20:03;;;;;;;21.23;13.98;;;17.70;99.90;;;;;;5031173;28;20111;-67
2023/07/07 06:22:29;;;;;;;19.83;14.63;;;17.80;99.90;;;;;;5030389;28;20084;-66
2023/07/07 06:24:54;;;;;;;19.65;13.57;;;17.90;99.90;;;;;;5022292;28;20046;-67
2023/07/07 06:27:20;;;;;;;19.67;14.30;;;18.00;99.90;;;;;;5032061;28;20509;-66
2023/07/07 06:29:47;;;;;;;20.85;14.30;;;18.20;99.90;;;;;;5028068;28;20376;-67
2023/07/07 06:32:12;;;;;;;21.88;13.25;;;18.30;99.90;;;;;;5021141;28;20030;-67
2023/07/07 06:34:38;;;;;;;17.83;12.77;;;18.40;99.90;;;;;;5031024;28;20087;-66
2023/07/07 06:37:04;;;;;;;18.90;11.65;;;18.60;99.90;;;;;;5028668;28;20423;-67
2023/07/07 06:39:29;;;;;;;15.43;11.32;;;18.70;99.90;;;;;;5029621;28;20065;-67
2023/07/07 06:41:56;;;;;;;15.25;10.80;;;18.80;99.90;;;;;;5031686;28;20034;-67
2023/07/07 06:44:22;;;;;;;15.82;10.50;;;18.90;99.90;;;;;;5029384;28;20091;-67
2023/07/07 06:46:48;;;;;;;13.82;10.23;;;19.00;99.90;;;;;;5031289;28;20039;-67
2023/07/07 06:49:13;;;;;;;16.17;10.63;;;19.20;99.90;;;;;;5028272;28;20042;-67
2023/07/07 06:51:39;;;;;;;13.63;10.02;;;19.20;99.90;;;;;;5029509;28;20026;-67
2023/07/07 06:54:05;;;;;;;13.77;8.70;;;19.50;99.90;;;;;;5031988;28;20067;-67
2023/07/07 06:56:31;;;;;;;12.75;9.07;;;19.60;99.90;;;;;;5024664;28;20641;-67
2023/07/07 06:58:56;;;;;;;15.65;9.07;;;19.70;99.90;;;;;;5020161;28;20136;-67
2023/07/07 07:01:22;;;;;;;12.43;8.65;;;19.80;99.90;;;;;;5032174;28;20114;-67
2023/07/07 07:03:48;;;;;;;14.65;8.35;;;20.00;99.90;;;;;;5022275;28;20416;-67
2023/07/07 07:06:14;;;;;;;11.43;8.05;;;20.20;99.90;;;;;;5023044;28;20045;-67
2023/07/07 07:08:40;;;;;;;10.27;7.30;;;20.30;99.90;;;;;;5021496;28;20045;-67
2023/07/07 07:11:08;;;;;;;10.13;7.38;;;20.40;99.90;;;;;;5019871;28;20411;-67
2023/07/07 07:13:34;;;;;;;10.45;7.57;;;20.60;99.90;;;;;;5017846;28;20042;-67
2023/07/07 07:16:00;;;;;;;10.77;7.28;;;20.80;99.90;;;;;;5022122;28;20037;-67
2023/07/07 07:18:26;;;;;;;8.80;6.72;;;20.90;99.90;;;;;;5017256;28;20029;-67
2023/07/07 07:20:54;;;;;;;10.45;6.32;;;21.00;99.90;;;;;;5017985;28;20100;-67
2023/07/07 07:23:20;;;;;;;8.30;6.13;;;21.10;99.90;;;;;;5031705;28;20041;-67
2023/07/07 07:25:46;;;;;;;10.88;6.22;;;21.30;99.90;;;;;;5022607;28;20042;-67
2023/07/07 07:28:13;;;;;;;8.95;6.13;;;21.30;99.90;;;;;;5027199;28;20044;-67
2023/07/07 07:30:39;;;;;;;12.40;6.00;;;21.50;99.90;;;;;;5020908;28;20034;-67
2023/07/07 07:33:12;;;;;;;7.80;5.13;;;21.60;99.90;;;;;;5021217;28;20084;-68
2023/07/07 07:35:38;;;;;;;8.98;5.38;;;21.70;99.90;;;;;;5028130;28;20037;-68
2023/07/07 07:38:04;;;;;;;9.15;5.57;;;21.80;99.90;;;;;;5031881;28;20055;-67
2023/07/07 07:40:29;;;;;;;9.82;5.30;;;21.90;99.90;;;;;;5030923;28;20137;-68
2023/07/07 07:42:55;;;;;;;8.25;4.63;;;22.00;99.90;;;;;;5031146;28;20026;-67
2023/07/07 07:45:23;;;;;;;7.57;4.35;;;22.10;99.90;;;;;;5030641;28;20069;-68
2023/07/07 07:47:50;;;;;;;6.88;4.68;;;22.20;99.90;;;;;;5030442;28;20048;-67
2023/07/07 07:50:16;;;;;;;7.45;4.63;;;22.30;99.90;;;;;;5030258;28;20045;-67
2023/07/07 07:52:42;;;;;;;7.82;3.97;;;22.50;99.90;;;;;;5030214;28;20052;-68
2023/07/07 07:55:08;;;;;;;5.97;3.63;;;22.60;99.90;;;;;;5022366;28;20407;-68
2023/07/07 07:57:34;;;;;;;4.93;3.40;;;22.70;99.90;;;;;;5031444;28;20040;-67
2023/07/07 08:00:00;;;;;;;7.63;3.65;;;22.90;99.90;;;;;;5030396;28;21642;-68
2023/07/07 08:02:26;;;;;;;7.78;3.53;;;23.00;99.90;;;;;;5030616;28;20379;-67
2023/07/07 08:04:51;;;;;;;5.47;3.42;;;23.10;99.90;;;;;;5030960;28;20068;-67
2023/07/07 08:07:17;;;;;;;6.20;3.00;;;23.20;99.90;;;;;;5031724;28;20037;-67
2023/07/07 08:09:42;;;;;;;6.88;3.33;;;23.30;99.90;;;;;;5031317;28;20390;-67
2023/07/07 08:12:09;;;;;;;7.20;3.78;;;23.40;99.90;;;;;;5027489;28;20046;-67
2023/07/07 08:14:35;;;;;;;5.22;3.08;;;23.50;99.90;;;;;;5024060;28;20037;-67
2023/07/07 08:17:10;;;;;;;5.53;2.90;;;23.60;99.90;;;;;;5023125;28;20095;-68
2023/07/07 08:19:38;;;;;;;6.63;3.30;;;23.70;99.90;;;;;;5030392;28;20041;-67
2023/07/07 08:22:07;;;;;;;4.72;2.78;;;23.70;99.30;;;;;;5028469;28;20042;-68
2023/07/07 08:24:39;;;;;;;6.28;3.20;;;23.90;98.70;;;;;;5031038;28;20060;-68
2023/07/07 08:27:05;;;;;;;6.78;3.10;;;24.00;97.30;;;;;;5031401;28;20040;-68
2023/07/07 08:29:30;;;;;;;8.32;3.13;;;24.10;96.80;;;;;;5034114;28;20048;-68
2023/07/07 08:31:56;;;;;;;4.72;2.35;;;24.10;94.90;;;;;;5033094;28;20049;-68
2023/07/07 08:34:22;;;;;;;3.38;2.58;;;24.20;95.00;;;;;;5032625;28;20391;-68
2023/07/07 08:36:47;;;;;;;3.85;2.30;;;24.30;94.50;;;;;;5035038;28;20033;-68
2023/07/07 08:39:19;;;;;;;7.50;2.85;;;24.40;93.20;;;;;;5034306;28;20049;-68
2023/07/07 08:41:50;;;;;;;4.45;2.30;;;24.50;91.40;;;;;;5034037;28;20091;-68
2023/07/07 08:44:17;;;;;;;;;;;24.50;87.40;;;;;;5027168;28;20033;-67
2023/07/07 08:47:07;;;;;;;4.72;2.60;;;24.60;88.00;;;;;;5034879;28;19921;-67
2023/07/07 08:50:07;;;;;;;6.15;2.35;;;24.60;85.70;;;;;;5032627;28;20030;-68
2023/07/07 08:52:49;;;;;;;3.28;2.17;;;24.80;87.00;;;;;;5021652;28;20033;-67
2023/07/07 08:55:24;;;;;;;3.03;2.25;;;24.90;83.90;;;;;;5026562;28;20042;-67
2023/07/07 08:58:15;;;;;;;4.13;2.08;;;25.00;82.90;;;;;;5034849;28;20095;-67
2023/07/07 09:00:55;;;;;;;6.45;2.20;;;25.00;79.80;;;;;;5034818;28;20120;-67
2023/07/07 09:03:48;;;;;;;3.83;1.85;;;25.10;78.40;;;;;;5032265;28;20095;-67
2023/07/07 09:06:19;;;;;;;4.80;1.95;;;25.20;75.90;;;;;;5022408;28;20073;-68
2023/07/07 09:09:06;;;;;;;4.93;2.20;;;25.30;77.20;;;;;;5030466;28;20172;-67
2023/07/07 09:12:24;;;;;;;5.25;2.65;;;25.40;77.90;;;;;;5033483;28;20041;-67
2023/07/07 09:14:51;;;;;;;3.92;2.30;;;25.40;74.70;;;;;;5031063;28;20068;-67
2023/07/07 09:17:30;;;;;;;4.32;1.77;;;25.40;72.90;;;;;;5029383;28;20077;-67
2023/07/07 09:19:59;;;;;;;3.03;2.00;;;25.50;71.50;;;;;;5031579;28;20037;-67
2023/07/07 09:22:35;;;;;;;3.65;2.30;;;25.50;70.00;;;;;;5032803;28;20040;-65
2023/07/07 09:25:13;;;;;;;5.05;2.10;;;25.60;70.70;;;;;;5033735;28;20084;-65
2023/07/07 09:27:43;;;;;;;5.35;2.15;;;25.60;70.20;;;;;;5034416;28;20038;-65
2023/07/07 09:30:22;;;;;;;3.22;2.10;;;25.70;68.50;;;;;;5027230;28;20113;-65
2023/07/07 09:32:48;;;;;;;3.78;2.05;;;25.70;67.30;;;;;;5019404;28;20033;-65
2023/07/07 09:35:15;;;;;;;4.47;2.10;;;25.80;67.00;;;;;;5025704;28;20041;-65
2023/07/07 09:37:46;;;;;;;3.35;2.10;;;25.90;67.30;;;;;;5034166;28;20045;-67
2023/07/07 09:40:18;;;;;;;6.07;2.30;;;26.00;69.10;;;;;;5032893;28;20033;-67
2023/07/07 09:43:20;;;;;;;3.58;2.22;;;26.00;66.70;;;;;;5021840;28;20041;-67
2023/07/07 09:46:15;;;;;;;4.15;2.20;;;26.00;65.80;;;;;;5030184;28;20079;-67
2023/07/07 09:49:17;;;;;;;5.07;2.25;;;26.00;65.30;;;;;;5033623;28;20041;-67
2023/07/07 09:52:04;;;;;;;4.55;2.03;;;26.10;65.80;;;;;;5032771;28;20056;-68
2023/07/07 09:54:32;;;;;;;5.38;2.08;;;26.10;65.20;;;;;;5032334;28;20573;-67
2023/07/07 09:57:04;;;;;;;3.38;2.15;;;26.10;65.30;;;;;;5025474;28;20124;-68
2023/07/07 09:59:34;;;;;;;4.63;2.30;;;26.10;64.10;;;;;;5032304;28;20041;-68
2023/07/07 10:02:00;;;;;;;5.15;2.50;;;26.10;64.40;;;;;;5018142;28;20033;-68
2023/07/07 10:04:29;;;;;;;4.65;2.13;;;26.20;64.20;;;;;;5033203;28;20592;-67
2023/07/07 10:07:06;;;;;;;4.55;2.42;;;26.20;62.90;;;;;;5033530;28;20488;-67
2023/07/07 10:09:32;;;;;;;6.30;2.30;;;26.20;64.90;;;;;;5026364;28;20045;-67
2023/07/07 10:11:58;;;;;;;4.25;2.40;;;26.30;65.00;;;;;;5028412;28;20041;-67
2023/07/07 10:14:28;;;;;;;3.05;2.00;;;26.40;64.50;;;;;;5026512;28;20084;-67
2023/07/07 10:17:14;;;;;;;4.55;2.25;;;26.40;64.20;;;;;;5033395;28;20037;-67
2023/07/07 10:20:06;;;;;;;3.58;2.20;;;26.40;65.10;;;;;;5033359;28;20115;-67
2023/07/07 10:22:35;;;;;;;4.75;2.45;;;26.50;64.60;;;;;;5024327;28;20510;-67
2023/07/07 10:25:02;;;;;;;3.53;2.30;;;26.60;64.10;;;;;;5029546;28;20049;-67
2023/07/07 10:27:28;;;;;;;3.63;2.40;;;26.70;65.00;;;;;;5033067;28;20060;-67
2023/07/07 10:30:03;;;;;;;4.45;2.20;;;26.70;65.20;;;;;;5032743;28;20408;-67
2023/07/07 10:32:29;;;;;;;4.55;2.05;;;26.80;64.30;;;;;;5026691;28;20030;-67
2023/07/07 10:34:57;;;;;;;4.32;2.22;;;26.80;61.40;;;;;;5029920;28;20045;-67
2023/07/07 10:37:27;;;;;;;3.35;2.17;;;26.80;61.10;;;;;;5033189;28;20449;-67
2023/07/07 10:39:55;;;;;;;4.15;2.30;;;26.80;60.40;;;;;;5031379;28;20044;-67
2023/07/07 10:42:25;;;;;;;4.18;1.92;;;26.80;59.80;;;;;;5025134;28;20047;-67
2023/07/07 10:44:59;;;;;;;2.43;1.90;;;26.80;60.30;;;;;;5032266;28;20045;-67
2023/07/07 10:47:34;;;;;;;4.95;1.95;;;26.80;59.50;;;;;;5032696;28;20072;-67
2023/07/07 10:50:00;;;;;;;5.40;2.40;;;26.90;60.90;;;;;;5046807;22;20037;-66
2023/07/07 10:52:47;;;;;;;3.83;2.58;;;26.90;61.30;;;;;;5026556;28;20026;-65
2023/07/07 10:55:18;;;;;;;3.88;1.95;;;27.00;60.70;;;;;;5031713;28;20045;-65
2023/07/07 10:57:57;;;;;;;2.80;1.90;;;27.00;60.30;;;;;;5031386;28;20544;-65
2023/07/07 11:00:55;;;;;;;2.97;2.10;;;27.10;58.30;;;;;;5025619;28;20080;-65
2023/07/07 11:03:59;;;;;;;6.15;2.25;;;27.10;59.20;;;;;;5023112;28;20056;-65
2023/07/07 11:06:40;;;;;;;5.28;2.22;;;27.20;60.10;;;;;;4932696;29;20490;-65
2023/07/07 11:09:18;;;;;;;4.63;2.22;;;27.20;58.50;;;;;;5004671;28;20050;-65
2023/07/07 11:12:12;;;;;;;5.78;2.15;;;27.20;58.00;;;;;;5016562;28;20062;-65
2023/07/07 11:14:38;;;;;;;5.75;2.28;;;27.10;57.40;;;;;;5031955;28;20033;-66
2023/07/07 11:17:11;;;;;;;5.07;2.20;;;27.20;58.10;;;;;;5032387;28;20044;-64
2023/07/07 11:19:48;;;;;;;4.15;2.15;;;27.20;58.50;;;;;;5031888;28;20044;-63
2023/07/07 11:22:38;;;;;;;2.63;2.10;;;27.30;58.80;;;;;;5027336;28;20407;-63
2023/07/07 11:25:21;;;;;;;3.63;2.03;;;27.30;58.60;;;;;;5030251;28;20047;-63
2023/07/07 11:28:06;;;;;;;2.88;1.77;;;27.30;57.10;;;;;;5009960;28;20034;-64
2023/07/07 11:31:00;;;;;;;3.45;1.90;;;27.30;55.60;;;;;;5015794;28;20045;-63
2023/07/07 11:33:42;;;;;;;4.07;2.10;;;27.40;55.80;;;;;;5024756;28;20282;-63
2023/07/07 11:36:16;;;;;;;3.30;2.03;;;27.40;53.40;;;;;;5030859;28;20037;-63
2023/07/07 11:38:51;;;;;;;3.25;2.10;;;27.50;53.30;;;;;;5031908;28;20502;-64
2023/07/07 11:41:35;;;;;;;3.28;1.92;;;27.50;53.00;;;;;;5027907;28;20124;-64
2023/07/07 11:44:21;;;;;;;3.13;2.17;;;27.60;51.30;;;;;;5028612;28;20033;-64
2023/07/07 11:47:13;;;;;;;4.85;2.00;;;27.80;53.20;;;;;;4981286;28;20058;-64
2023/07/07 11:50:11;;;;;;;5.07;2.28;;;27.80;52.20;;;;;;5028064;28;20033;-64
2023/07/07 11:53:04;;;;;;;5.00;2.10;;;27.80;52.20;;;;;;5029710;28;20395;-64
2023/07/07 11:55:54;;;;;;;4.22;2.08;;;27.80;51.60;;;;;;5030370;28;20048;-64
2023/07/07 11:58:20;;;;;;;;;;;27.90;50.90;;;;;;5030051;28;20033;-64
2023/07/07 12:01:00;;;;;;;3.13;2.10;;;27.80;50.80;;;;;;5029296;28;19917;-64
2023/07/07 12:03:41;;;;;;;4.30;1.98;;;27.80;50.80;;;;;;5032826;28;20033;-64
2023/07/07 12:06:19;;;;;;;3.85;1.80;;;27.80;49.80;;;;;;5036505;28;20048;-63
2023/07/07 12:09:00;;;;;;;3.45;2.03;;;27.70;48.80;;;;;;5036065;28;20045;-63
2023/07/07 12:11:30;;;;;;;3.53;2.22;;;27.70;48.30;;;;;;5038029;28;20045;-63
2023/07/07 12:14:18;;;;;;;3.55;2.20;;;27.70;47.80;;;;;;5028885;28;20076;-63
2023/07/07 12:16:46;;;;;;;4.38;2.20;;;27.80;48.70;;;;;;5033284;28;20554;-65
2023/07/07 12:19:37;;;;;;;2.92;1.98;;;27.90;47.60;;;;;;5036883;28;20148;-65
2023/07/07 12:22:12;;;;;;;4.60;2.00;;;27.90;48.80;;;;;;5036766;28;20041;-65
2023/07/07 12:24:59;;;;;;;4.30;1.90;;;27.90;48.60;;;;;;5036417;28;20044;-65
2023/07/07 12:27:31;;;;;;;3.33;2.38;;;27.90;47.80;;;;;;5034461;28;20091;-64
2023/07/07 12:29:58;;;;;;;4.28;2.03;;;28.00;47.60;;;;;;5035439;28;20087;-64
2023/07/07 12:32:24;;;;;;;4.30;2.13;;;28.00;46.10;;;;;;5036072;28;20515;-64
2023/07/07 12:35:06;;;;;;;3.13;1.80;;;28.00;46.70;;;;;;5033979;28;20076;-64
2023/07/07 12:37:34;;;;;;;2.97;2.08;;;28.00;48.40;;;;;;5027331;28;20045;-65
2023/07/07 12:40:13;;;;;;;3.53;2.00;;;27.90;47.10;;;;;;5037326;28;20072;-65
2023/07/07 12:42:42;;;;;;;3.15;1.95;;;28.00;48.10;;;;;;5033081;28;20107;-64
2023/07/07 12:45:08;;;;;;;3.20;2.00;;;27.90;47.70;;;;;;5035261;28;20673;-64
2023/07/07 12:47:37;;;;;;;3.30;1.98;;;28.00;47.70;;;;;;5036854;28;20095;-64
2023/07/07 12:50:15;;;;;;;3.20;2.03;;;28.00;47.10;;;;;;5037287;28;20124;-64
2023/07/07 12:52:43;;;;;;;2.88;1.90;;;28.00;47.50;;;;;;5037951;28;20044;-64
2023/07/07 12:55:20;;;;;;;3.40;2.20;;;28.10;47.50;;;;;;5037605;28;20095;-65
2023/07/07 12:58:28;;;;;;;3.78;2.10;;;28.10;46.60;;;;;;5036939;28;20048;-64